KAUN

Auburn Municipal Airport

Auburn, California, USA
METAR KAUN 190715Z AUTO 09007KT 10SM CLR 27/12 A2995 RMK AO1
Observed Flight Rules
Jul-19 @ 07:15 UTC (21 minutes ago) Visual Flight Rules
Wind Visibility Clouds
90° at 7 knots 10 miles
  • Clear skies
Temperatures Readings
Current 27°C / 81°F
Dewpoint 12°C / 54°F
Humidity 39%
Altimeter 29.95" Hg
Pressure 1014 hPa
Elevation 467
METAR KAUN 190715Z AUTO 09007KT 10SM CLR 27/12 A2995 RMK AO1
Observed Flight Rules
Jul-19 @ 07:15 UTC
(21 minutes ago)
VFR
Wind Visibility
90° at 7 knots 10 miles
Clouds
  • Clear skies
Temperature Dewpoint
27°C / 81°F 12°C / 54°F
Humidity Altimeter Pressure
39% 29.95" Hg 1014 hPa